sensor_id;sensor_type;location;lat;lon;timestamp;pressure;altitude;pressure_sealevel;temperature;humidity
78679;BME280;67994;59.334;13.528;2023-03-16T00:00:00;100800.0;;;-2.1;62.8
78679;BME280;67994;59.334;13.528;2023-03-16T00:01:02;100800.0;;;-2.1;62.5
78679;BME280;67994;59.334;13.528;2023-03-16T00:02:00;100800.0;;;-2.1;62.7
78679;BME280;67994;59.334;13.528;2023-03-16T00:03:00;100800.0;;;-2.1;62.7
78679;BME280;67994;59.334;13.528;2023-03-16T00:04:00;100800.0;;;-2.1;62.6
78679;BME280;67994;59.334;13.528;2023-03-16T00:05:00;100800.0;;;-2.0;62.5
78679;BME280;67994;59.334;13.528;2023-03-16T00:06:00;100800.0;;;-2.0;62.5
78679;BME280;67994;59.334;13.528;2023-03-16T00:07:00;100800.0;;;-2.1;62.7
78679;BME280;67994;59.334;13.528;2023-03-16T00:08:00;100800.0;;;-2.0;62.8
78679;BME280;67994;59.334;13.528;2023-03-16T00:09:00;100900.0;;;-2.0;62.5
78679;BME280;67994;59.334;13.528;2023-03-16T00:10:00;100900.0;;;-2.0;62.6
78679;BME280;67994;59.334;13.528;2023-03-16T00:11:00;100900.0;;;-2.1;63.0
78679;BME280;67994;59.334;13.528;2023-03-16T00:12:00;100900.0;;;-2.0;62.7
78679;BME280;67994;59.334;13.528;2023-03-16T00:13:00;100900.0;;;-2.0;62.9
78679;BME280;67994;59.334;13.528;2023-03-16T00:14:00;100900.0;;;-2.1;62.5
78679;BME280;67994;59.334;13.528;2023-03-16T00:15:00;100900.0;;;-2.0;62.5
78679;BME280;67994;59.334;13.528;2023-03-16T00:16:01;100900.0;;;-2.1;62.6
78679;BME280;67994;59.334;13.528;2023-03-16T00:17:00;100900.0;;;-2.0;62.4
78679;BME280;67994;59.334;13.528;2023-03-16T00:18:00;100900.0;;;-2.1;62.7
78679;BME280;67994;59.334;13.528;2023-03-16T00:19:00;100900.0;;;-2.0;62.4
78679;BME280;67994;59.334;13.528;2023-03-16T00:20:00;100900.0;;;-2.0;62.3
78679;BME280;67994;59.334;13.528;2023-03-16T00:21:00;100900.0;;;-2.0;62.2
78679;BME280;67994;59.334;13.528;2023-03-16T00:22:00;100900.0;;;-2.1;62.1
78679;BME280;67994;59.334;13.528;2023-03-16T00:23:00;100900.0;;;-2.0;62.2
78679;BME280;67994;59.334;13.528;2023-03-16T00:24:00;100900.0;;;-2.0;62.3
78679;BME280;67994;59.334;13.528;2023-03-16T00:25:00;100900.0;;;-2.0;62.1
78679;BME280;67994;59.334;13.528;2023-03-16T00:26:02;100900.0;;;-2.0;62.1
78679;BME280;67994;59.334;13.528;2023-03-16T00:27:00;100900.0;;;-2.0;61.9
78679;BME280;67994;59.334;13.528;2023-03-16T00:28:00;100900.0;;;-2.0;62.0
78679;BME280;67994;59.334;13.528;2023-03-16T00:29:00;100900.0;;;-2.0;62.1
78679;BME280;67994;59.334;13.528;2023-03-16T00:30:00;100900.0;;;-2.0;61.9
78679;BME280;67994;59.334;13.528;2023-03-16T00:31:00;100900.0;;;-2.0;62.1
78679;BME280;67994;59.334;13.528;2023-03-16T00:32:00;100900.0;;;-2.0;61.8
78679;BME280;67994;59.334;13.528;2023-03-16T00:33:00;100900.0;;;-2.0;62.1
78679;BME280;67994;59.334;13.528;2023-03-16T00:34:00;100900.0;;;-2.0;62.1
78679;BME280;67994;59.334;13.528;2023-03-16T00:35:01;100900.0;;;-2.1;62.4
78679;BME280;67994;59.334;13.528;2023-03-16T00:36:00;100900.0;;;-2.0;62.0
78679;BME280;67994;59.334;13.528;2023-03-16T00:37:00;100900.0;;;-2.0;62.0
78679;BME280;67994;59.334;13.528;2023-03-16T00:38:00;100900.0;;;-2.0;61.8
78679;BME280;67994;59.334;13.528;2023-03-16T00:39:00;100900.0;;;-2.0;61.8
78679;BME280;67994;59.334;13.528;2023-03-16T00:40:00;100900.0;;;-2.0;61.7
78679;BME280;67994;59.334;13.528;2023-03-16T00:41:00;100900.0;;;-2.0;61.9
78679;BME280;67994;59.334;13.528;2023-03-16T00:42:00;100900.0;;;-1.9;61.6
78679;BME280;67994;59.334;13.528;2023-03-16T00:43:00;100900.0;;;-2.0;61.7
78679;BME280;67994;59.334;13.528;2023-03-16T00:44:00;100900.0;;;-2.0;62.0
78679;BME280;67994;59.334;13.528;2023-03-16T00:45:00;100900.0;;;-2.1;62.0
78679;BME280;67994;59.334;13.528;2023-03-16T00:46:00;100900.0;;;-2.0;62.3
78679;BME280;67994;59.334;13.528;2023-03-16T00:47:00;100900.0;;;-2.0;62.2
78679;BME280;67994;59.334;13.528;2023-03-16T00:48:00;100900.0;;;-2.0;61.8
78679;BME280;67994;59.334;13.528;2023-03-16T00:49:00;100900.0;;;-2.0;61.7
78679;BME280;67994;59.334;13.528;2023-03-16T00:50:01;100900.0;;;-2.1;61.9
78679;BME280;67994;59.334;13.528;2023-03-16T00:51:00;100900.0;;;-2.0;61.7
78679;BME280;67994;59.334;13.528;2023-03-16T00:52:00;100900.0;;;-2.0;61.5
78679;BME280;67994;59.334;13.528;2023-03-16T00:53:00;100900.0;;;-2.2;62.0
78679;BME280;67994;59.334;13.528;2023-03-16T00:54:00;100900.0;;;-2.1;62.0
78679;BME280;67994;59.334;13.528;2023-03-16T00:55:00;100900.0;;;-2.2;62.0
78679;BME280;67994;59.334;13.528;2023-03-16T00:56:00;100900.0;;;-2.1;61.7
78679;BME280;67994;59.334;13.528;2023-03-16T00:57:01;100900.0;;;-2.1;61.7
78679;BME280;67994;59.334;13.528;2023-03-16T00:58:00;100900.0;;;-2.0;61.5
78679;BME280;67994;59.334;13.528;2023-03-16T00:59:00;100900.0;;;-2.1;61.6
78679;BME280;67994;59.334;13.528;2023-03-16T01:00:00;100900.0;;;-2.3;61.8
78679;BME280;67994;59.334;13.528;2023-03-16T01:01:00;100900.0;;;-2.2;62.0
78679;BME280;67994;59.334;13.528;2023-03-16T01:02:00;100900.0;;;-2.2;62.1
78679;BME280;67994;59.334;13.528;2023-03-16T01:03:00;100900.0;;;-2.3;62.6
78679;BME280;67994;59.334;13.528;2023-03-16T01:04:00;100900.0;;;-2.2;62.2
78679;BME280;67994;59.334;13.528;2023-03-16T01:05:00;100900.0;;;-2.2;62.4
78679;BME280;67994;59.334;13.528;2023-03-16T01:06:02;100900.0;;;-2.3;62.6
78679;BME280;67994;59.334;13.528;2023-03-16T01:07:00;100900.0;;;-2.4;63.0
78679;BME280;67994;59.334;13.528;2023-03-16T01:08:00;100900.0;;;-2.3;63.4
78679;BME280;67994;59.334;13.528;2023-03-16T01:09:00;100900.0;;;-2.4;63.1
78679;BME280;67994;59.334;13.528;2023-03-16T01:10:00;100900.0;;;-2.4;63.5
78679;BME280;67994;59.334;13.528;2023-03-16T01:11:02;100900.0;;;-2.5;64.0
78679;BME280;67994;59.334;13.528;2023-03-16T01:12:00;100900.0;;;-2.4;63.3
78679;BME280;67994;59.334;13.528;2023-03-16T01:13:00;100900.0;;;-2.4;63.3
78679;BME280;67994;59.334;13.528;2023-03-16T01:14:00;100900.0;;;-2.3;63.2
78679;BME280;67994;59.334;13.528;2023-03-16T01:15:00;100900.0;;;-2.4;63.0
78679;BME280;67994;59.334;13.528;2023-03-16T01:16:00;100900.0;;;-2.4;63.3
78679;BME280;67994;59.334;13.528;2023-03-16T01:17:00;100900.0;;;-2.5;63.4
78679;BME280;67994;59.334;13.528;2023-03-16T01:18:00;100900.0;;;-2.6;63.6
78679;BME280;67994;59.334;13.528;2023-03-16T01:19:00;100900.0;;;-2.7;63.8
78679;BME280;67994;59.334;13.528;2023-03-16T01:20:00;100900.0;;;-2.6;63.5
78679;BME280;67994;59.334;13.528;2023-03-16T01:21:01;100900.0;;;-2.6;63.3
78679;BME280;67994;59.334;13.528;2023-03-16T01:22:00;100900.0;;;-2.6;63.6
78679;BME280;67994;59.334;13.528;2023-03-16T01:23:00;100900.0;;;-2.6;64.6
78679;BME280;67994;59.334;13.528;2023-03-16T01:24:00;100900.0;;;-2.7;64.1
78679;BME280;67994;59.334;13.528;2023-03-16T01:25:00;100900.0;;;-2.6;64.1
78679;BME280;67994;59.334;13.528;2023-03-16T01:26:00;100900.0;;;-2.6;64.4
78679;BME280;67994;59.334;13.528;2023-03-16T01:27:01;100900.0;;;-2.6;63.4
78679;BME280;67994;59.334;13.528;2023-03-16T01:28:00;100900.0;;;-2.6;63.7
78679;BME280;67994;59.334;13.528;2023-03-16T01:29:00;100900.0;;;-2.5;64.3
78679;BME280;67994;59.334;13.528;2023-03-16T01:30:00;100900.0;;;-2.6;64.0
78679;BME280;67994;59.334;13.528;2023-03-16T01:31:02;100900.0;;;-2.8;63.8
78679;BME280;67994;59.334;13.528;2023-03-16T01:32:01;100900.0;;;-2.8;64.1
78679;BME280;67994;59.334;13.528;2023-03-16T01:33:00;100900.0;;;-2.7;64.1
78679;BME280;67994;59.334;13.528;2023-03-16T01:34:00;100900.0;;;-2.8;63.9
78679;BME280;67994;59.334;13.528;2023-03-16T01:35:00;100900.0;;;-2.8;63.6
78679;BME280;67994;59.334;13.528;2023-03-16T01:36:02;100900.0;;;-2.9;63.7
78679;BME280;67994;59.334;13.528;2023-03-16T01:37:00;100900.0;;;-2.9;63.9
78679;BME280;67994;59.334;13.528;2023-03-16T01:38:00;100900.0;;;-2.9;64.0
78679;BME280;67994;59.334;13.528;2023-03-16T01:39:00;100900.0;;;-3.0;64.5
78679;BME280;67994;59.334;13.528;2023-03-16T01:40:00;100900.0;;;-3.0;64.7
78679;BME280;67994;59.334;13.528;2023-03-16T01:41:00;100900.0;;;-3.2;64.9
78679;BME280;67994;59.334;13.528;2023-03-16T01:42:00;100900.0;;;-3.1;64.9
78679;BME280;67994;59.334;13.528;2023-03-16T01:43:01;100900.0;;;-3.2;65.1
78679;BME280;67994;59.334;13.528;2023-03-16T01:44:00;100900.0;;;-3.1;65.1
78679;BME280;67994;59.334;13.528;2023-03-16T01:45:00;100900.0;;;-3.1;66.4
78679;BME280;67994;59.334;13.528;2023-03-16T01:46:13;100900.0;;;-3.1;66.8
78679;BME280;67994;59.334;13.528;2023-03-16T01:47:00;100900.0;;;-3.2;66.4
78679;BME280;67994;59.334;13.528;2023-03-16T01:48:00;100900.0;;;-3.1;66.5
78679;BME280;67994;59.334;13.528;2023-03-16T01:49:05;101000.0;;;-3.0;67.2
78679;BME280;67994;59.334;13.528;2023-03-16T01:50:00;101000.0;;;-3.2;66.0
78679;BME280;67994;59.334;13.528;2023-03-16T01:51:00;101000.0;;;-3.3;65.4
78679;BME280;67994;59.334;13.528;2023-03-16T01:52:02;101000.0;;;-3.4;65.5
78679;BME280;67994;59.334;13.528;2023-03-16T01:53:00;101000.0;;;-3.4;67.2
78679;BME280;67994;59.334;13.528;2023-03-16T01:54:03;101000.0;;;-3.4;66.1
78679;BME280;67994;59.334;13.528;2023-03-16T01:55:03;101000.0;;;-3.5;66.1
78679;BME280;67994;59.334;13.528;2023-03-16T01:56:02;101000.0;;;-3.4;66.0
78679;BME280;67994;59.334;13.528;2023-03-16T01:57:03;101000.0;;;-3.4;65.6
78679;BME280;67994;59.334;13.528;2023-03-16T01:58:00;101000.0;;;-3.5;65.6
78679;BME280;67994;59.334;13.528;2023-03-16T01:59:03;101000.0;;;-3.7;66.0
78679;BME280;67994;59.334;13.528;2023-03-16T02:00:04;101000.0;;;-3.6;65.9
78679;BME280;67994;59.334;13.528;2023-03-16T02:01:00;101000.0;;;-3.5;66.1
78679;BME280;67994;59.334;13.528;2023-03-16T02:02:00;101000.0;;;-3.6;65.9
78679;BME280;67994;59.334;13.528;2023-03-16T02:03:03;101000.0;;;-3.5;65.7
78679;BME280;67994;59.334;13.528;2023-03-16T02:04:07;101000.0;;;-3.5;65.7
78679;BME280;67994;59.334;13.528;2023-03-16T02:05:01;101000.0;;;-3.7;66.1
78679;BME280;67994;59.334;13.528;2023-03-16T02:06:03;101000.0;;;-3.6;66.5
78679;BME280;67994;59.334;13.528;2023-03-16T02:07:00;101000.0;;;-3.6;66.4
78679;BME280;67994;59.334;13.528;2023-03-16T02:08:01;101000.0;;;-3.7;66.7
78679;BME280;67994;59.334;13.528;2023-03-16T02:09:01;101000.0;;;-3.6;66.7
78679;BME280;67994;59.334;13.528;2023-03-16T02:10:02;101000.0;;;-3.7;66.7
78679;BME280;67994;59.334;13.528;2023-03-16T02:11:02;101000.0;;;-3.7;66.6
78679;BME280;67994;59.334;13.528;2023-03-16T02:12:00;101000.0;;;-3.7;66.5
78679;BME280;67994;59.334;13.528;2023-03-16T02:13:00;101000.0;;;-3.7;66.8
78679;BME280;67994;59.334;13.528;2023-03-16T02:14:05;101000.0;;;-3.8;66.8
78679;BME280;67994;59.334;13.528;2023-03-16T02:15:00;101000.0;;;-3.7;66.7
78679;BME280;67994;59.334;13.528;2023-03-16T02:16:00;101000.0;;;-3.7;66.7
78679;BME280;67994;59.334;13.528;2023-03-16T02:17:00;101000.0;;;-3.7;66.8
78679;BME280;67994;59.334;13.528;2023-03-16T02:18:00;101000.0;;;-3.8;66.8
78679;BME280;67994;59.334;13.528;2023-03-16T02:19:00;101000.0;;;-3.8;66.9
78679;BME280;67994;59.334;13.528;2023-03-16T02:20:07;101000.0;;;-3.7;67.0
78679;BME280;67994;59.334;13.528;2023-03-16T02:21:05;101000.0;;;-3.7;67.4
78679;BME280;67994;59.334;13.528;2023-03-16T02:22:01;101000.0;;;-3.9;67.3
78679;BME280;67994;59.334;13.528;2023-03-16T02:23:01;101000.0;;;-3.8;67.2
78679;BME280;67994;59.334;13.528;2023-03-16T02:24:01;101000.0;;;-3.9;67.6
78679;BME280;67994;59.334;13.528;2023-03-16T02:25:00;101000.0;;;-3.8;67.9
78679;BME280;67994;59.334;13.528;2023-03-16T02:26:02;101000.0;;;-3.8;68.3
78679;BME280;67994;59.334;13.528;2023-03-16T02:27:02;101000.0;;;-3.7;68.7
78679;BME280;67994;59.334;13.528;2023-03-16T02:28:07;101000.0;;;-3.8;67.6
78679;BME280;67994;59.334;13.528;2023-03-16T02:29:11;101000.0;;;-3.9;67.6
78679;BME280;67994;59.334;13.528;2023-03-16T02:30:04;101000.0;;;-3.8;67.3
78679;BME280;67994;59.334;13.528;2023-03-16T02:31:00;101000.0;;;-3.9;67.5
78679;BME280;67994;59.334;13.528;2023-03-16T02:32:00;101000.0;;;-3.9;67.4
78679;BME280;67994;59.334;13.528;2023-03-16T02:33:00;101000.0;;;-3.9;67.7
78679;BME280;67994;59.334;13.528;2023-03-16T02:34:00;101000.0;;;-3.9;68.0
78679;BME280;67994;59.334;13.528;2023-03-16T02:35:01;101000.0;;;-3.8;67.5
78679;BME280;67994;59.334;13.528;2023-03-16T02:36:00;101000.0;;;-3.9;68.1
78679;BME280;67994;59.334;13.528;2023-03-16T02:37:01;101000.0;;;-3.9;68.4
78679;BME280;67994;59.334;13.528;2023-03-16T02:38:00;101000.0;;;-3.8;68.1
78679;BME280;67994;59.334;13.528;2023-03-16T02:39:00;101000.0;;;-3.7;67.6
78679;BME280;67994;59.334;13.528;2023-03-16T02:40:01;101000.0;;;-3.8;68.1
78679;BME280;67994;59.334;13.528;2023-03-16T02:41:08;101000.0;;;-3.7;67.7
78679;BME280;67994;59.334;13.528;2023-03-16T02:42:00;101000.0;;;-3.6;66.9
78679;BME280;67994;59.334;13.528;2023-03-16T02:43:03;101000.0;;;-3.6;67.0
78679;BME280;67994;59.334;13.528;2023-03-16T02:44:06;101000.0;;;-3.6;67.8
78679;BME280;67994;59.334;13.528;2023-03-16T02:45:00;101000.0;;;-3.5;67.5
78679;BME280;67994;59.334;13.528;2023-03-16T02:46:01;101000.0;;;-3.6;67.7
78679;BME280;67994;59.334;13.528;2023-03-16T02:47:03;101000.0;;;-3.6;67.2
78679;BME280;67994;59.334;13.528;2023-03-16T02:48:02;101000.0;;;-3.7;67.1
78679;BME280;67994;59.334;13.528;2023-03-16T02:49:02;101000.0;;;-3.7;67.3
78679;BME280;67994;59.334;13.528;2023-03-16T02:50:00;101000.0;;;-3.7;67.3
78679;BME280;67994;59.334;13.528;2023-03-16T02:51:00;101000.0;;;-3.7;66.9
78679;BME280;67994;59.334;13.528;2023-03-16T02:52:00;101000.0;;;-3.7;67.1
78679;BME280;67994;59.334;13.528;2023-03-16T02:53:00;101000.0;;;-3.7;67.1
78679;BME280;67994;59.334;13.528;2023-03-16T02:54:00;101000.0;;;-3.7;67.6
78679;BME280;67994;59.334;13.528;2023-03-16T02:55:00;101000.0;;;-3.6;67.7
78679;BME280;67994;59.334;13.528;2023-03-16T02:56:00;101000.0;;;-3.7;67.4
78679;BME280;67994;59.334;13.528;2023-03-16T02:57:00;101000.0;;;-3.8;67.4
78679;BME280;67994;59.334;13.528;2023-03-16T02:58:00;101000.0;;;-3.8;67.4
78679;BME280;67994;59.334;13.528;2023-03-16T02:59:00;101000.0;;;-3.7;67.7
78679;BME280;67994;59.334;13.528;2023-03-16T03:00:00;101000.0;;;-3.7;67.5
78679;BME280;67994;59.334;13.528;2023-03-16T03:01:02;101000.0;;;-3.7;67.4
78679;BME280;67994;59.334;13.528;2023-03-16T03:02:00;101000.0;;;-3.8;67.1
78679;BME280;67994;59.334;13.528;2023-03-16T03:03:00;101000.0;;;-3.9;67.1
78679;BME280;67994;59.334;13.528;2023-03-16T03:04:00;101000.0;;;-3.9;67.1
78679;BME280;67994;59.334;13.528;2023-03-16T03:05:00;101000.0;;;-4.0;67.0
78679;BME280;67994;59.334;13.528;2023-03-16T03:06:00;101000.0;;;-4.0;67.0
78679;BME280;67994;59.334;13.528;2023-03-16T03:07:00;101000.0;;;-3.9;67.4
78679;BME280;67994;59.334;13.528;2023-03-16T03:08:00;101000.0;;;-3.9;67.8
78679;BME280;67994;59.334;13.528;2023-03-16T03:09:00;101000.0;;;-3.8;67.5
78679;BME280;67994;59.334;13.528;2023-03-16T03:10:00;101000.0;;;-3.9;67.0
78679;BME280;67994;59.334;13.528;2023-03-16T03:11:00;101000.0;;;-4.0;66.8
78679;BME280;67994;59.334;13.528;2023-03-16T03:12:00;101100.0;;;-3.9;66.9
78679;BME280;67994;59.334;13.528;2023-03-16T03:13:00;101100.0;;;-4.0;67.4
78679;BME280;67994;59.334;13.528;2023-03-16T03:14:00;101100.0;;;-4.0;67.3
78679;BME280;67994;59.334;13.528;2023-03-16T03:15:00;101100.0;;;-4.1;67.3
78679;BME280;67994;59.334;13.528;2023-03-16T03:16:00;101100.0;;;-4.0;68.2
78679;BME280;67994;59.334;13.528;2023-03-16T03:17:00;101100.0;;;-4.0;67.2
78679;BME280;67994;59.334;13.528;2023-03-16T03:18:00;101100.0;;;-4.0;68.0
78679;BME280;67994;59.334;13.528;2023-03-16T03:19:00;101100.0;;;-3.9;68.5
78679;BME280;67994;59.334;13.528;2023-03-16T03:20:00;101100.0;;;-4.2;67.3
78679;BME280;67994;59.334;13.528;2023-03-16T03:21:00;101100.0;;;-4.2;67.8
78679;BME280;67994;59.334;13.528;2023-03-16T03:22:00;101100.0;;;-4.2;67.2
78679;BME280;67994;59.334;13.528;2023-03-16T03:23:00;101100.0;;;-4.3;67.4
78679;BME280;67994;59.334;13.528;2023-03-16T03:24:00;101100.0;;;-4.3;67.1
78679;BME280;67994;59.334;13.528;2023-03-16T03:25:00;101100.0;;;-4.2;67.1
78679;BME280;67994;59.334;13.528;2023-03-16T03:26:01;101100.0;;;-4.1;67.0
78679;BME280;67994;59.334;13.528;2023-03-16T03:27:00;101100.0;;;-4.1;66.9
78679;BME280;67994;59.334;13.528;2023-03-16T03:28:01;101100.0;;;-4.2;67.1
78679;BME280;67994;59.334;13.528;2023-03-16T03:29:00;101100.0;;;-4.2;67.2
78679;BME280;67994;59.334;13.528;2023-03-16T03:30:00;101100.0;;;-4.2;67.3
78679;BME280;67994;59.334;13.528;2023-03-16T03:31:00;101100.0;;;-4.2;68.2
78679;BME280;67994;59.334;13.528;2023-03-16T03:32:00;101100.0;;;-4.4;67.9
78679;BME280;67994;59.334;13.528;2023-03-16T03:33:00;101100.0;;;-4.4;68.3
78679;BME280;67994;59.334;13.528;2023-03-16T03:34:00;101100.0;;;-4.4;68.5
78679;BME280;67994;59.334;13.528;2023-03-16T03:35:00;101100.0;;;-4.5;68.2
78679;BME280;67994;59.334;13.528;2023-03-16T03:36:00;101100.0;;;-4.6;68.5
78679;BME280;67994;59.334;13.528;2023-03-16T03:37:00;101100.0;;;-4.5;68.3
78679;BME280;67994;59.334;13.528;2023-03-16T03:38:00;101100.0;;;-4.7;68.6
78679;BME280;67994;59.334;13.528;2023-03-16T03:39:00;101100.0;;;-4.6;68.8
78679;BME280;67994;59.334;13.528;2023-03-16T03:40:00;101100.0;;;-4.6;69.2
78679;BME280;67994;59.334;13.528;2023-03-16T03:41:00;101100.0;;;-4.6;69.2
78679;BME280;67994;59.334;13.528;2023-03-16T03:42:00;101100.0;;;-4.5;69.3
78679;BME280;67994;59.334;13.528;2023-03-16T03:43:00;101100.0;;;-4.6;69.8
78679;BME280;67994;59.334;13.528;2023-03-16T03:44:00;101100.0;;;-4.7;69.7
78679;BME280;67994;59.334;13.528;2023-03-16T03:45:00;101100.0;;;-4.5;70.3
78679;BME280;67994;59.334;13.528;2023-03-16T03:46:02;101100.0;;;-4.4;70.5
78679;BME280;67994;59.334;13.528;2023-03-16T03:47:00;101100.0;;;-4.5;70.3
78679;BME280;67994;59.334;13.528;2023-03-16T03:48:00;101100.0;;;-4.4;70.5
78679;BME280;67994;59.334;13.528;2023-03-16T03:49:00;101100.0;;;-4.5;70.0
78679;BME280;67994;59.334;13.528;2023-03-16T03:50:00;101100.0;;;-4.4;70.0
78679;BME280;67994;59.334;13.528;2023-03-16T03:51:00;101100.0;;;-4.5;69.9
78679;BME280;67994;59.334;13.528;2023-03-16T03:52:00;101100.0;;;-4.6;69.7
78679;BME280;67994;59.334;13.528;2023-03-16T03:53:00;101100.0;;;-4.5;69.3
78679;BME280;67994;59.334;13.528;2023-03-16T03:54:00;101100.0;;;-4.3;70.2
78679;BME280;67994;59.334;13.528;2023-03-16T03:55:00;101100.0;;;-4.6;69.5
78679;BME280;67994;59.334;13.528;2023-03-16T03:56:00;101100.0;;;-4.7;69.7
78679;BME280;67994;59.334;13.528;2023-03-16T03:57:00;101100.0;;;-4.7;69.2
78679;BME280;67994;59.334;13.528;2023-03-16T03:58:00;101100.0;;;-4.6;69.3
78679;BME280;67994;59.334;13.528;2023-03-16T03:59:00;101100.0;;;-4.7;69.3
78679;BME280;67994;59.334;13.528;2023-03-16T04:00:00;101100.0;;;-4.5;69.2
78679;BME280;67994;59.334;13.528;2023-03-16T04:01:00;101100.0;;;-4.3;69.9
78679;BME280;67994;59.334;13.528;2023-03-16T04:02:00;101100.0;;;-4.4;68.8
78679;BME280;67994;59.334;13.528;2023-03-16T04:03:00;101100.0;;;-4.4;68.6
78679;BME280;67994;59.334;13.528;2023-03-16T04:04:00;101100.0;;;-4.3;70.1
78679;BME280;67994;59.334;13.528;2023-03-16T04:05:00;101100.0;;;-4.2;68.7
78679;BME280;67994;59.334;13.528;2023-03-16T04:06:00;101100.0;;;-4.3;69.0
78679;BME280;67994;59.334;13.528;2023-03-16T04:07:00;101100.0;;;-4.2;69.3
78679;BME280;67994;59.334;13.528;2023-03-16T04:08:00;101100.0;;;-4.5;68.4
78679;BME280;67994;59.334;13.528;2023-03-16T04:09:00;101100.0;;;-4.5;68.1
78679;BME280;67994;59.334;13.528;2023-03-16T04:10:00;101100.0;;;-4.4;68.2
78679;BME280;67994;59.334;13.528;2023-03-16T04:11:00;101100.0;;;-4.4;68.6
78679;BME280;67994;59.334;13.528;2023-03-16T04:12:00;101100.0;;;-4.4;68.7
78679;BME280;67994;59.334;13.528;2023-03-16T04:13:00;101100.0;;;-4.4;68.5
78679;BME280;67994;59.334;13.528;2023-03-16T04:14:00;101100.0;;;-4.3;69.1
78679;BME280;67994;59.334;13.528;2023-03-16T04:15:00;101100.0;;;-4.4;68.3
78679;BME280;67994;59.334;13.528;2023-03-16T04:16:00;101100.0;;;-4.4;68.6
78679;BME280;67994;59.334;13.528;2023-03-16T04:17:00;101100.0;;;-4.4;68.5
78679;BME280;67994;59.334;13.528;2023-03-16T04:18:00;101100.0;;;-4.4;68.3
78679;BME280;67994;59.334;13.528;2023-03-16T04:19:00;101100.0;;;-4.6;68.3
78679;BME280;67994;59.334;13.528;2023-03-16T04:20:00;101100.0;;;-4.5;68.3
78679;BME280;67994;59.334;13.528;2023-03-16T04:21:00;101100.0;;;-4.4;68.7
78679;BME280;67994;59.334;13.528;2023-03-16T04:22:00;101100.0;;;-4.5;68.1
78679;BME280;67994;59.334;13.528;2023-03-16T04:23:00;101100.0;;;-4.7;67.9
78679;BME280;67994;59.334;13.528;2023-03-16T04:24:00;101100.0;;;-4.7;67.7
78679;BME280;67994;59.334;13.528;2023-03-16T04:25:00;101100.0;;;-4.6;68.0
78679;BME280;67994;59.334;13.528;2023-03-16T04:26:00;101100.0;;;-4.6;67.9
78679;BME280;67994;59.334;13.528;2023-03-16T04:27:00;101100.0;;;-4.6;67.7
78679;BME280;67994;59.334;13.528;2023-03-16T04:28:00;101100.0;;;-4.6;68.3
78679;BME280;67994;59.334;13.528;2023-03-16T04:29:00;101100.0;;;-4.6;68.4
78679;BME280;67994;59.334;13.528;2023-03-16T04:30:00;101100.0;;;-4.8;67.5
78679;BME280;67994;59.334;13.528;2023-03-16T04:31:00;101100.0;;;-4.6;67.9
78679;BME280;67994;59.334;13.528;2023-03-16T04:32:00;101100.0;;;-4.8;68.0
78679;BME280;67994;59.334;13.528;2023-03-16T04:33:00;101100.0;;;-4.7;68.6
78679;BME280;67994;59.334;13.528;2023-03-16T04:34:00;101100.0;;;-4.7;68.3
78679;BME280;67994;59.334;13.528;2023-03-16T04:35:00;101100.0;;;-4.8;68.1
78679;BME280;67994;59.334;13.528;2023-03-16T04:36:01;101100.0;;;-4.7;68.1
78679;BME280;67994;59.334;13.528;2023-03-16T04:37:00;101100.0;;;-4.6;68.3
78679;BME280;67994;59.334;13.528;2023-03-16T04:38:00;101100.0;;;-4.8;69.0
78679;BME280;67994;59.334;13.528;2023-03-16T04:39:00;101100.0;;;-4.8;68.4
78679;BME280;67994;59.334;13.528;2023-03-16T04:40:00;101100.0;;;-4.8;68.2
78679;BME280;67994;59.334;13.528;2023-03-16T04:41:00;101100.0;;;-4.7;68.5
78679;BME280;67994;59.334;13.528;2023-03-16T04:42:00;101100.0;;;-4.7;69.0
78679;BME280;67994;59.334;13.528;2023-03-16T04:43:00;101100.0;;;-4.8;68.7
78679;BME280;67994;59.334;13.528;2023-03-16T04:44:00;101100.0;;;-4.8;69.2
78679;BME280;67994;59.334;13.528;2023-03-16T04:45:00;101100.0;;;-4.7;69.1
78679;BME280;67994;59.334;13.528;2023-03-16T04:46:00;101100.0;;;-4.7;68.6
78679;BME280;67994;59.334;13.528;2023-03-16T04:47:00;101100.0;;;-4.7;69.0
78679;BME280;67994;59.334;13.528;2023-03-16T04:48:00;101100.0;;;-4.9;69.0
78679;BME280;67994;59.334;13.528;2023-03-16T04:49:00;101100.0;;;-4.7;68.6
78679;BME280;67994;59.334;13.528;2023-03-16T04:50:00;101100.0;;;-4.6;68.2
78679;BME280;67994;59.334;13.528;2023-03-16T04:51:00;101100.0;;;-4.7;67.6
78679;BME280;67994;59.334;13.528;2023-03-16T04:52:00;101200.0;;;-4.7;68.0
78679;BME280;67994;59.334;13.528;2023-03-16T04:53:00;101200.0;;;-4.9;68.0
78679;BME280;67994;59.334;13.528;2023-03-16T04:54:00;101200.0;;;-4.9;68.3
78679;BME280;67994;59.334;13.528;2023-03-16T04:55:00;101200.0;;;-4.9;68.5
78679;BME280;67994;59.334;13.528;2023-03-16T04:56:00;101200.0;;;-4.9;68.6
78679;BME280;67994;59.334;13.528;2023-03-16T04:57:00;101200.0;;;-4.9;68.7
78679;BME280;67994;59.334;13.528;2023-03-16T04:58:00;101200.0;;;-4.9;68.9
78679;BME280;67994;59.334;13.528;2023-03-16T04:59:00;101200.0;;;-4.8;68.9
78679;BME280;67994;59.334;13.528;2023-03-16T05:00:00;101200.0;;;-5.0;68.9
78679;BME280;67994;59.334;13.528;2023-03-16T05:01:00;101200.0;;;-5.0;68.9
78679;BME280;67994;59.334;13.528;2023-03-16T05:02:00;101200.0;;;-4.8;69.1
78679;BME280;67994;59.334;13.528;2023-03-16T05:03:00;101200.0;;;-4.9;69.6
78679;BME280;67994;59.334;13.528;2023-03-16T05:04:00;101200.0;;;-5.0;69.3
78679;BME280;67994;59.334;13.528;2023-03-16T05:05:00;101200.0;;;-4.9;69.8
78679;BME280;67994;59.334;13.528;2023-03-16T05:06:00;101200.0;;;-4.9;69.8
78679;BME280;67994;59.334;13.528;2023-03-16T05:07:00;101200.0;;;-4.9;70.3
78679;BME280;67994;59.334;13.528;2023-03-16T05:08:00;101200.0;;;-4.9;70.7
78679;BME280;67994;59.334;13.528;2023-03-16T05:09:00;101200.0;;;-4.9;70.2
78679;BME280;67994;59.334;13.528;2023-03-16T05:10:00;101200.0;;;-4.9;70.4
78679;BME280;67994;59.334;13.528;2023-03-16T05:11:00;101200.0;;;-4.9;70.7
78679;BME280;67994;59.334;13.528;2023-03-16T05:12:00;101200.0;;;-4.9;69.9
78679;BME280;67994;59.334;13.528;2023-03-16T05:13:00;101200.0;;;-5.0;70.1
78679;BME280;67994;59.334;13.528;2023-03-16T05:14:00;101200.0;;;-4.9;70.4
78679;BME280;67994;59.334;13.528;2023-03-16T05:15:00;101200.0;;;-4.8;69.9
78679;BME280;67994;59.334;13.528;2023-03-16T05:16:00;101200.0;;;-4.9;69.8
78679;BME280;67994;59.334;13.528;2023-03-16T05:17:00;101200.0;;;-4.9;69.4
78679;BME280;67994;59.334;13.528;2023-03-16T05:18:00;101200.0;;;-5.0;69.2
78679;BME280;67994;59.334;13.528;2023-03-16T05:19:00;101200.0;;;-4.9;69.8
78679;BME280;67994;59.334;13.528;2023-03-16T05:20:00;101200.0;;;-4.9;69.7
78679;BME280;67994;59.334;13.528;2023-03-16T05:21:00;101200.0;;;-4.9;69.5